Time;durP1;ratioP1;P1;durP2;ratioP2;P2;SDS_P1;SDS_P2;PMS_P1;PMS_P2;Temp;Humidity;BMP_temperature;BMP_pressure;BME280_temperature;BME280_humidity;BME280_pressure;Samples;Min_cycle;Max_cycle;Signal;HPM_P1;HPM_P2
2021/11/04 00:02:15;;;;;;;28.05;20.05;;;;;;;5.57;82.54;97874.66;1737576;82;20889;-61
2021/11/04 00:04:42;;;;;;;32.48;21.87;;;;;;;5.57;82.60;97870.67;1733427;82;21030;-59
2021/11/04 00:07:12;;;;;;;34.73;20.95;;;;;;;5.54;82.69;97869.33;1733482;82;20901;-61
2021/11/04 00:09:39;;;;;;;35.50;21.37;;;;;;;5.54;82.76;97856.85;1733583;82;20893;-58
2021/11/04 00:12:07;;;;;;;33.67;20.25;;;;;;;5.53;82.83;97860.55;1733555;82;21131;-58
2021/11/04 00:14:33;;;;;;;31.30;21.10;;;;;;;5.52;82.92;97856.31;1733497;82;21503;-59
2021/11/04 00:17:00;;;;;;;34.65;19.77;;;;;;;5.52;83.00;97862.96;1733443;82;20932;-60
2021/11/04 00:19:27;;;;;;;27.37;19.42;;;;;;;5.52;83.08;97856.31;1734115;82;21377;-61
2021/11/04 00:21:53;;;;;;;31.30;20.30;;;;;;;5.54;83.15;97858.18;1733559;82;21519;-60
2021/11/04 00:24:20;;;;;;;27.02;19.35;;;;;;;5.53;83.18;97855.23;1733558;82;21222;-57
2021/11/04 00:26:47;;;;;;;28.12;19.57;;;;;;;5.56;83.24;97850.48;1733486;82;20907;-58
2021/11/04 00:29:14;;;;;;;33.28;19.77;;;;;;;5.58;83.24;97857.67;1733804;82;20968;-60
2021/11/04 00:31:41;;;;;;;26.93;19.10;;;;;;;5.60;83.21;97862.19;1733637;82;21400;-57
2021/11/04 00:34:08;;;;;;;26.37;18.55;;;;;;;5.63;83.21;97856.36;1733573;82;20861;-58
2021/11/04 00:36:34;;;;;;;29.30;19.05;;;;;;;5.65;83.22;97842.28;1733538;82;21118;-57
2021/11/04 00:39:01;;;;;;;31.93;19.42;;;;;;;5.70;83.19;97834.32;1733723;82;20881;-57
2021/11/04 00:41:27;;;;;;;30.00;18.87;;;;;;;5.71;83.15;97832.72;1733624;82;20921;-58
2021/11/04 00:43:56;;;;;;;27.93;18.17;;;;;;;5.73;83.12;97823.14;1733494;82;20932;-59
2021/11/04 00:46:23;;;;;;;32.85;19.15;;;;;;;5.74;83.07;97836.19;1733530;82;20948;-59
2021/11/04 00:48:49;;;;;;;27.45;18.57;;;;;;;5.75;83.02;97839.62;1733718;82;21751;-59
2021/11/04 00:51:16;;;;;;;27.58;18.30;;;;;;;5.76;83.02;97844.69;1733467;82;20913;-57
2021/11/04 00:53:44;;;;;;;25.82;18.57;;;;;;;5.80;83.01;97856.91;1733415;82;20885;-57
2021/11/04 00:56:10;;;;;;;26.50;17.98;;;;;;;5.83;83.02;97865.70;1733517;82;20881;-57
2021/11/04 00:58:37;;;;;;;25.68;18.77;;;;;;;5.87;82.93;97874.77;1733549;82;20861;-57
2021/11/04 01:01:04;;;;;;;27.05;17.42;;;;;;;5.86;82.87;97868.67;1734601;82;21010;-58
2021/11/04 01:03:32;;;;;;;26.90;17.55;;;;;;;5.87;82.91;97873.44;1747877;82;20885;-57
2021/11/04 01:05:59;;;;;;;26.27;18.45;;;;;;;5.88;82.86;97880.36;1748115;82;20896;-58
2021/11/04 01:08:26;;;;;;;29.82;18.17;;;;;;;5.90;82.81;97879.57;1747863;82;20956;-58
2021/11/04 01:10:53;;;;;;;29.55;19.00;;;;;;;5.91;82.86;97887.83;1748018;82;20959;-60
2021/11/04 01:13:21;;;;;;;40.60;18.92;;;;;;;5.94;82.82;97886.75;1748004;82;21124;-59
2021/11/04 01:15:48;;;;;;;23.60;16.97;;;;;;;5.98;82.75;97884.38;1748135;82;21351;-58
2021/11/04 01:18:15;;;;;;;25.23;17.65;;;;;;;5.99;82.70;97870.81;1747979;82;20970;-60
2021/11/04 01:20:42;;;;;;;25.30;19.15;;;;;;;6.03;82.62;97865.78;1747967;82;20975;-59
2021/11/04 01:23:09;;;;;;;27.42;18.60;;;;;;;6.05;82.50;97871.64;1748125;82;21344;-61
2021/11/04 01:25:35;;;;;;;26.73;17.87;;;;;;;6.02;82.49;97864.98;1748168;82;21077;-57
2021/11/04 01:28:08;;;;;;;26.00;17.45;;;;;;;6.03;82.51;97863.12;1747781;82;21011;-59
2021/11/04 01:30:31;;;;;;;27.87;19.10;;;;;;;6.02;82.57;97858.86;1747951;82;20929;-60
2021/11/04 01:32:58;;;;;;;30.68;20.75;;;;;;;6.02;82.62;97855.67;1748056;82;21409;-59
2021/11/04 01:35:25;;;;;;;33.08;20.82;;;;;;;6.06;82.59;97854.08;1748006;82;20904;-59
2021/11/04 01:37:52;;;;;;;29.35;19.82;;;;;;;6.06;82.56;97857.26;1747978;82;21122;-59
2021/11/04 01:40:19;;;;;;;35.92;22.77;;;;;;;6.04;82.52;97856.20;1747823;82;20912;-59
2021/11/04 01:42:46;;;;;;;29.10;20.97;;;;;;;6.03;82.55;97854.59;1747985;82;20916;-58
2021/11/04 01:45:12;;;;;;;30.37;20.65;;;;;;;6.05;82.58;97862.33;1747957;82;21011;-58
2021/11/04 01:47:41;;;;;;;30.48;20.48;;;;;;;6.08;82.57;97853.80;1748052;82;21482;-58
2021/11/04 01:50:08;;;;;;;31.97;22.25;;;;;;;6.11;82.58;97857.27;1747872;82;21095;-62
2021/11/04 01:52:35;;;;;;;28.83;21.35;;;;;;;6.14;82.57;97870.05;1748032;82;21450;-60
2021/11/04 01:55:01;;;;;;;38.95;24.98;;;;;;;6.18;82.55;97867.12;1748142;82;20916;-58
2021/11/04 01:57:28;;;;;;;37.60;25.50;;;;;;;6.20;82.51;97861.80;1747963;82;20924;-57
2021/11/04 01:59:57;;;;;;;34.65;24.05;;;;;;;6.24;82.44;97854.63;1747749;82;20945;-59
2021/11/04 02:02:26;;;;;;;28.98;19.50;;;;;;;6.22;82.38;97856.20;1747862;82;21131;-61
2021/11/04 02:05:04;;;;;;;28.25;19.20;;;;;;;6.22;82.34;97846.90;1721079;82;21518;-61
2021/11/04 02:07:56;;;;;;;29.82;20.45;;;;;;;6.22;82.35;97850.89;1747975;82;21451;-62
2021/11/04 02:10:33;;;;;;;30.97;20.45;;;;;;;6.25;82.37;97836.27;1747759;82;21044;-61
2021/11/04 02:13:25;;;;;;;33.78;20.48;;;;;;;6.24;82.37;97838.15;1748086;82;20889;-61
2021/11/04 02:15:57;;;;;;;32.48;20.55;;;;;;;6.24;82.33;97836.82;1747877;82;21059;-59
2021/11/04 02:18:23;;;;;;;28.90;19.67;;;;;;;6.23;82.39;97829.09;1748085;82;21506;-61
2021/11/04 02:21:12;;;;;;;24.60;17.75;;;;;;;6.22;82.37;97834.16;1720865;82;20888;-59
2021/11/04 02:24:06;;;;;;;25.85;18.85;;;;;;;6.20;82.42;97826.42;1747966;82;20924;-61
2021/11/04 02:26:34;;;;;;;31.33;21.30;;;;;;;6.18;82.54;97831.22;1747889;82;20967;-59
2021/11/04 02:29:00;;;;;;;30.37;20.17;;;;;;;6.20;82.70;97831.74;1720716;82;21404;-58
2021/11/04 02:31:28;;;;;;;28.27;17.60;;;;;;;6.22;82.70;97834.93;1747788;82;20876;-59
2021/11/04 02:33:55;;;;;;;27.37;17.98;;;;;;;6.22;82.73;97845.56;1747849;82;20987;-57
2021/11/04 02:36:22;;;;;;;25.70;18.82;;;;;;;6.23;82.77;97847.17;1748213;82;21448;-59
2021/11/04 02:38:49;;;;;;;26.87;19.00;;;;;;;6.24;82.77;97847.98;1697414;82;20845;-59
2021/11/04 02:41:16;;;;;;;30.97;19.45;;;;;;;6.23;82.74;97847.17;1748211;82;21134;-61
2021/11/04 02:43:42;;;;;;;26.02;17.50;;;;;;;6.21;82.80;97838.67;1748089;82;20971;-60
2021/11/04 02:46:09;;;;;;;24.35;17.32;;;;;;;6.20;82.84;97847.17;1748192;82;20853;-60
2021/11/04 02:48:36;;;;;;;32.13;21.42;;;;;;;6.21;82.93;97843.98;1747887;82;20932;-58
2021/11/04 02:51:03;;;;;;;26.90;18.67;;;;;;;6.20;82.88;97845.04;1747859;82;20978;-59
2021/11/04 02:53:30;;;;;;;31.25;18.65;;;;;;;6.18;82.90;97842.66;1747939;82;21134;-58
2021/11/04 02:55:57;;;;;;;25.65;18.10;;;;;;;6.14;82.95;97838.94;1747875;82;20904;-58
2021/11/04 02:58:26;;;;;;;26.77;16.95;;;;;;;6.13;83.02;97844.50;1747947;82;20944;-57
2021/11/04 03:00:58;;;;;;;28.07;17.15;;;;;;;6.12;83.11;97837.61;1747804;82;21022;-59
2021/11/04 03:03:25;;;;;;;23.92;17.25;;;;;;;6.11;83.19;97828.02;1747895;81;20971;-58
2021/11/04 03:05:52;;;;;;;30.82;18.10;;;;;;;6.10;83.32;97815.80;1748117;82;21140;-61
2021/11/04 03:08:19;;;;;;;25.62;16.82;;;;;;;6.11;83.35;97822.70;1747853;82;20880;-60
2021/11/04 03:10:47;;;;;;;26.10;17.50;;;;;;;6.09;83.48;97826.97;1747833;81;20852;-58
2021/11/04 03:13:14;;;;;;;25.55;16.90;;;;;;;6.09;83.48;97815.00;1748006;82;20924;-60
2021/11/04 03:15:46;;;;;;;27.60;17.30;;;;;;;6.11;83.52;97806.75;1748156;82;21392;-61
2021/11/04 03:18:13;;;;;;;23.55;16.75;;;;;;;6.14;83.66;97800.91;1747832;82;21099;-59
2021/11/04 03:20:39;;;;;;;28.32;19.60;;;;;;;6.17;83.67;97797.72;1720584;82;20884;-61
2021/11/04 03:23:06;;;;;;;32.08;20.92;;;;;;;6.22;83.68;97791.60;1747897;82;20940;-57
2021/11/04 03:25:33;;;;;;;33.08;17.37;;;;;;;6.25;83.65;97781.21;1747995;82;21498;-59
2021/11/04 03:28:01;;;;;;;23.80;17.90;;;;;;;6.27;83.61;97775.09;1748002;82;21443;-57
2021/11/04 03:30:33;;;;;;;27.67;17.27;;;;;;;6.29;83.60;97782.27;1747812;82;21072;-61
2021/11/04 03:32:59;;;;;;;27.48;16.85;;;;;;;6.31;83.57;97780.69;1747782;82;20877;-59
2021/11/04 03:35:28;;;;;;;28.85;18.95;;;;;;;6.30;83.62;97767.11;1747912;82;20975;-59
2021/11/04 03:37:54;;;;;;;25.52;18.45;;;;;;;6.31;83.64;97779.36;1747891;82;20912;-60
2021/11/04 03:40:21;;;;;;;25.45;17.90;;;;;;;6.33;83.66;97780.69;1747959;82;21424;-62
2021/11/04 03:42:49;;;;;;;25.02;16.87;;;;;;;6.34;83.61;97782.27;1748079;82;21113;-56
2021/11/04 03:45:16;;;;;;;29.52;20.05;;;;;;;6.34;83.59;97776.14;1748211;82;20928;-56
2021/11/04 03:47:43;;;;;;;26.33;18.07;;;;;;;6.34;83.60;97760.98;1748307;82;21570;-61
2021/11/04 03:50:10;;;;;;;24.05;17.20;;;;;;;6.35;83.60;97749.29;1748046;82;20896;-62
2021/11/04 03:52:42;;;;;;;26.05;17.55;;;;;;;6.35;83.63;97749.29;1747992;82;20943;-57
2021/11/04 03:55:12;;;;;;;24.72;16.95;;;;;;;6.35;83.67;97737.84;1748180;82;21107;-60
2021/11/04 03:57:41;;;;;;;29.25;19.60;;;;;;;6.35;83.68;97732.52;1747998;82;20916;-60
2021/11/04 04:00:12;;;;;;;34.50;26.40;;;;;;;6.35;83.70;97734.66;1748049;81;20904;-60
2021/11/04 04:02:40;;;;;;;42.65;30.92;;;;;;;6.34;83.70;97737.04;1743342;82;20933;-58
2021/11/04 04:05:07;;;;;;;34.48;26.35;;;;;;;6.31;83.76;97736.27;1733685;82;21511;-59
2021/11/04 04:07:36;;;;;;;32.03;27.45;;;;;;;6.28;83.85;97726.16;1733463;82;21537;-60
2021/11/04 04:10:04;;;;;;;31.97;22.50;;;;;;;6.29;83.93;97722.42;1733749;82;21062;-61
2021/11/04 04:12:31;;;;;;;30.02;21.30;;;;;;;6.27;83.98;97711.25;1733466;82;21441;-60
2021/11/04 04:14:58;;;;;;;26.87;18.07;;;;;;;6.27;84.04;97715.24;1733545;82;20929;-61
2021/11/04 04:17:25;;;;;;;25.08;17.37;;;;;;;6.26;84.21;97721.65;1733585;82;20976;-59
2021/11/04 04:19:54;;;;;;;30.52;21.35;;;;;;;6.27;84.29;97715.77;1733901;82;21649;-59
2021/11/04 04:22:21;;;;;;;33.98;27.37;;;;;;;6.28;84.40;97719.52;1733506;82;20877;-59
2021/11/04 04:24:47;;;;;;;33.73;26.62;;;;;;;6.31;84.41;97720.31;1733808;82;21345;-58
2021/11/04 04:27:15;;;;;;;34.48;27.65;;;;;;;6.33;84.39;97719.50;1733536;82;20937;-57
2021/11/04 04:29:42;;;;;;;33.78;21.05;;;;;;;6.36;84.38;97724.82;1733538;82;20972;-58
2021/11/04 04:32:09;;;;;;;29.15;20.75;;;;;;;6.39;84.38;97718.41;1733453;82;21742;-60
2021/11/04 04:34:36;;;;;;;35.92;26.97;;;;;;;6.40;84.38;97717.36;1733495;82;20874;-59
2021/11/04 04:37:04;;;;;;;41.25;33.70;;;;;;;6.43;84.36;97725.34;1733609;82;20976;-59
2021/11/04 04:39:33;;;;;;;45.12;34.15;;;;;;;6.47;84.37;97731.18;1733540;82;21417;-59
2021/11/04 04:42:00;;;;;;;35.88;26.12;;;;;;;6.49;84.28;97734.36;1733648;82;20865;-58
2021/11/04 04:44:28;;;;;;;33.18;20.43;;;;;;;6.50;84.24;97737.83;1733516;82;21122;-59
2021/11/04 04:46:55;;;;;;;23.80;17.62;;;;;;;6.51;84.20;97748.19;1733446;82;20972;-59
2021/11/04 04:49:21;;;;;;;35.25;19.60;;;;;;;6.51;84.19;97755.37;1733486;82;20924;-60
2021/11/04 04:51:48;;;;;;;47.88;31.57;;;;;;;6.52;84.21;97752.98;1733498;82;20901;-61
2021/11/04 04:54:16;;;;;;;44.30;27.82;;;;;;;6.54;84.21;97754.31;1733568;82;21526;-58
2021/11/04 04:56:43;;;;;;;41.85;30.75;;;;;;;6.55;84.22;97754.56;1733511;82;21132;-59
2021/11/04 04:59:09;;;;;;;32.33;22.45;;;;;;;6.55;84.21;97758.55;1733475;82;20873;-59
2021/11/04 05:01:36;;;;;;;28.75;22.85;;;;;;;6.56;84.25;97764.67;1733718;82;21487;-58
2021/11/04 05:04:03;;;;;;;35.60;26.70;;;;;;;6.57;84.30;97764.39;1744828;82;21019;-57
2021/11/04 05:06:30;;;;;;;38.20;27.35;;;;;;;6.56;84.34;97757.50;1748030;82;21450;-58
2021/11/04 05:08:56;;;;;;;32.03;23.20;;;;;;;6.57;84.35;97752.42;1747982;82;21130;-61
2021/11/04 05:11:23;;;;;;;44.63;26.80;;;;;;;6.57;84.35;97741.78;1747912;82;20951;-58
2021/11/04 05:13:50;;;;;;;34.78;24.70;;;;;;;6.59;84.36;97745.52;1747905;82;20888;-58
2021/11/04 05:16:16;;;;;;;29.27;21.95;;;;;;;6.59;84.33;97739.67;1748238;82;20880;-61
2021/11/04 05:18:43;;;;;;;31.75;24.25;;;;;;;6.61;84.34;97745.52;1748012;82;21494;-61
2021/11/04 05:21:09;;;;;;;43.08;33.15;;;;;;;6.60;84.29;97737.78;1748158;82;21122;-58
2021/11/04 05:23:36;;;;;;;41.73;31.77;;;;;;;6.60;84.28;97740.44;1747924;82;20932;-59
2021/11/04 05:26:02;;;;;;;38.05;26.52;;;;;;;6.57;84.32;97736.45;1748187;82;21506;-60
2021/11/04 05:28:29;;;;;;;30.52;19.77;;;;;;;6.55;84.37;97729.80;1747945;82;20860;-59
2021/11/04 05:30:56;;;;;;;26.02;18.52;;;;;;;6.55;84.38;97738.59;1748117;82;21559;-60
2021/11/04 05:33:22;;;;;;;31.93;19.55;;;;;;;6.56;84.42;97730.08;1747982;82;21150;-58
2021/11/04 05:35:49;;;;;;;29.80;19.02;;;;;;;6.56;84.48;97728.22;1748090;82;20884;-59
2021/11/04 05:38:16;;;;;;;29.05;20.72;;;;;;;6.60;84.46;97719.16;1747876;82;20935;-61
2021/11/04 05:40:42;;;;;;;26.42;18.20;;;;;;;6.64;84.35;97715.67;1748215;82;21494;-62
2021/11/04 05:43:09;;;;;;;32.63;20.88;;;;;;;6.64;84.28;97721.00;1747986;82;20873;-62
2021/11/04 05:45:36;;;;;;;29.12;20.68;;;;;;;6.66;84.22;97718.89;1748194;82;21522;-62
2021/11/04 05:48:04;;;;;;;28.40;20.40;;;;;;;6.65;84.19;97706.64;1747786;82;21031;-56
2021/11/04 05:50:31;;;;;;;26.55;18.55;;;;;;;6.63;84.19;97702.13;1747869;82;20992;-60
2021/11/04 05:53:00;;;;;;;30.97;20.12;;;;;;;6.58;84.22;97698.14;1748038;82;20861;-60
2021/11/04 05:55:27;;;;;;;32.10;20.45;;;;;;;6.57;84.28;97699.20;1748004;82;21044;-58
2021/11/04 05:57:53;;;;;;;29.77;20.08;;;;;;;6.54;84.37;97694.44;1747931;82;21126;-59
2021/11/04 06:00:20;;;;;;;25.68;18.40;;;;;;;6.54;84.46;97690.98;1747896;82;21389;-59
2021/11/04 06:02:47;;;;;;;31.20;19.55;;;;;;;6.56;84.47;97690.17;1746161;82;21038;-60
2021/11/04 06:05:14;;;;;;;31.60;20.10;;;;;;;6.57;84.54;97691.77;1733349;82;20941;-60
2021/11/04 06:07:40;;;;;;;24.72;18.60;;;;;;;6.59;84.58;97691.77;1733480;82;21431;-62
2021/11/04 06:10:08;;;;;;;24.67;18.35;;;;;;;6.63;84.53;97697.33;1733442;82;21075;-61
2021/11/04 06:12:35;;;;;;;27.05;18.48;;;;;;;6.66;84.45;97701.59;1733511;82;20905;-61
2021/11/04 06:15:05;;;;;;;27.30;19.15;;;;;;;6.68;84.40;97699.98;1733445;82;21000;-59
2021/11/04 06:17:32;;;;;;;25.88;18.45;;;;;;;6.68;84.38;97714.61;1733428;82;20886;-58
2021/11/04 06:19:59;;;;;;;29.57;21.02;;;;;;;6.70;84.37;97727.11;1733600;82;20932;-60
2021/11/04 06:22:25;;;;;;;32.67;23.40;;;;;;;6.72;84.33;97723.11;1733459;82;21117;-59
2021/11/04 06:24:52;;;;;;;28.38;21.62;;;;;;;6.76;84.26;97725.48;1733666;82;20846;-61
2021/11/04 06:27:18;;;;;;;29.75;18.92;;;;;;;6.85;84.19;97723.84;1733646;82;21461;-58
2021/11/04 06:29:45;;;;;;;29.52;21.37;;;;;;;6.97;84.05;97732.08;1733383;82;20953;-59
2021/11/04 06:32:11;;;;;;;29.65;19.02;;;;;;;7.08;83.86;97731.76;1733471;82;20850;-58
2021/11/04 06:34:38;;;;;;;28.17;20.20;;;;;;;7.18;83.57;97736.24;1733450;82;21106;-57
2021/11/04 06:37:05;;;;;;;28.95;20.12;;;;;;;7.27;83.34;97730.06;1733362;82;20933;-60
2021/11/04 06:39:32;;;;;;;27.67;19.90;;;;;;;7.36;83.11;97724.95;1733441;82;20924;-58
2021/11/04 06:42:00;;;;;;;23.55;17.25;;;;;;;7.45;82.86;97723.28;1733347;82;20901;-59
2021/11/04 06:44:27;;;;;;;26.12;17.05;;;;;;;7.49;82.63;97709.66;1733358;82;20937;-58
2021/11/04 06:46:59;;;;;;;27.25;16.57;;;;;;;7.52;82.34;97703.78;1733330;82;21103;-56
2021/11/04 06:49:26;;;;;;;28.32;21.05;;;;;;;7.53;82.26;97700.06;1713273;82;21488;-58
2021/11/04 06:51:52;;;;;;;41.30;27.60;;;;;;;7.50;82.19;97702.73;1733305;82;20996;-60
2021/11/04 06:54:19;;;;;;;104.97;56.58;;;;;;;7.48;82.15;97701.42;1725168;82;21413;-59
2021/11/04 06:56:47;;;;;;;28.38;19.20;;;;;;;7.46;82.23;97688.91;1703854;83;21467;-56
2021/11/04 06:59:25;;;;;;;26.70;18.82;;;;;;;7.47;82.32;97686.49;1718548;83;21866;-56
2021/11/04 07:01:57;;;;;;;25.95;18.55;;;;;;;7.48;82.50;97684.10;1717991;83;20904;-58
2021/11/04 07:04:31;;;;;;;24.75;17.50;;;;;;;7.50;82.54;97688.08;1736598;81;20940;-61
2021/11/04 07:07:03;;;;;;;24.65;17.40;;;;;;;7.55;82.56;97684.58;1737724;82;21031;-60
2021/11/04 07:09:30;;;;;;;23.25;16.97;;;;;;;7.61;82.59;97682.69;1781484;80;20967;-62
2021/11/04 07:11:59;;;;;;;24.75;17.25;;;;;;;7.66;82.57;97677.29;1756528;80;21463;-62
2021/11/04 07:14:29;;;;;;;25.32;19.75;;;;;;;7.72;82.53;97677.52;1779237;80;20923;-62
2021/11/04 07:16:56;;;;;;;24.10;18.07;;;;;;;7.78;82.60;97667.87;1778302;80;21030;-56
2021/11/04 07:19:25;;;;;;;24.07;18.15;;;;;;;7.83;82.52;97666.50;1778300;80;21499;-61
2021/11/04 07:22:04;;;;;;;32.53;22.10;;;;;;;7.91;82.47;97659.23;1778458;80;20970;-57
2021/11/04 07:24:46;;;;;;;25.62;17.87;;;;;;;7.97;82.44;97659.97;1757836;80;21789;-58
2021/11/04 07:27:21;;;;;;;26.37;18.17;;;;;;;8.06;82.38;97656.41;1759159;80;21507;-61
2021/11/04 07:29:49;;;;;;;30.05;18.17;;;;;;;8.16;82.31;97657.65;1754146;80;21106;-60
2021/11/04 07:32:16;;;;;;;26.40;19.32;;;;;;;8.24;82.24;97650.91;1779237;80;20919;-60
2021/11/04 07:34:45;;;;;;;30.60;21.77;;;;;;;8.33;82.14;97637.23;1763576;80;20931;-59
2021/11/04 07:37:12;;;;;;;30.10;21.62;;;;;;;8.41;82.02;97647.26;1773070;80;21094;-58
2021/11/04 07:39:41;;;;;;;31.12;21.82;;;;;;;8.48;81.98;97641.04;1787216;80;20971;-57
2021/11/04 07:42:09;;;;;;;30.85;23.15;;;;;;;8.56;81.95;97635.62;1786280;80;20923;-59
2021/11/04 07:44:36;;;;;;;30.30;21.50;;;;;;;8.64;81.79;97631.80;1786408;80;21063;-60
2021/11/04 07:47:06;;;;;;;29.60;22.07;;;;;;;8.72;81.69;97627.67;1775867;80;20852;-60
2021/11/04 07:49:32;;;;;;;30.95;20.95;;;;;;;8.78;81.54;97611.86;1785633;80;21076;-60
2021/11/04 07:52:00;;;;;;;33.92;21.27;;;;;;;8.85;81.53;97606.95;1766631;80;20839;-61
2021/11/04 07:54:31;;;;;;;33.67;20.37;;;;;;;8.93;81.43;97616.97;1759529;80;20928;-61
2021/11/04 07:56:58;;;;;;;30.02;21.45;;;;;;;8.99;81.43;97614.50;1769085;80;20970;-61
2021/11/04 07:59:29;;;;;;;28.42;21.77;;;;;;;9.07;81.39;97610.39;1774173;80;20986;-62
2021/11/04 08:01:56;;;;;;;32.48;20.77;;;;;;;9.16;81.31;97604.64;1775116;80;21104;-59
2021/11/04 08:04:23;;;;;;;30.97;21.87;;;;;;;9.25;81.05;97599.69;1770076;80;20979;-60
2021/11/04 08:06:52;;;;;;;30.00;22.42;;;;;;;9.35;80.93;97604.86;1769769;80;21499;-57
2021/11/04 08:09:20;;;;;;;33.85;21.30;;;;;;;9.46;80.83;97594.28;1787717;80;20880;-60
2021/11/04 08:11:47;;;;;;;30.43;20.08;;;;;;;9.60;80.64;97579.61;1779618;80;20931;-57
2021/11/04 08:14:14;;;;;;;32.93;21.77;;;;;;;9.75;80.25;97575.88;1779181;80;21114;-56
2021/11/04 08:16:41;;;;;;;34.38;21.27;;;;;;;9.87;79.95;97578.88;1788130;80;21303;-58
2021/11/04 08:19:09;;;;;;;37.42;22.85;;;;;;;9.96;79.61;97574.42;1787682;80;20960;-57
2021/11/04 08:21:37;;;;;;;33.40;22.58;;;;;;;10.03;79.50;97570.81;1788228;80;20916;-59
2021/11/04 08:24:04;;;;;;;35.48;23.05;;;;;;;10.11;79.18;97566.92;1787449;80;20939;-61
2021/11/04 08:26:32;;;;;;;34.98;22.85;;;;;;;10.18;79.06;97562.51;1788073;80;20928;-61
2021/11/04 08:29:01;;;;;;;38.83;22.60;;;;;;;10.23;78.89;97558.40;1784191;80;21004;-60
2021/11/04 08:31:30;;;;;;;28.65;22.30;;;;;;;10.26;78.79;97565.84;1766676;80;21008;-61
2021/11/04 08:33:57;;;;;;;30.92;22.60;;;;;;;10.27;78.82;97561.52;1781914;80;21133;-58
2021/11/04 08:36:24;;;;;;;30.50;21.62;;;;;;;10.30;78.86;97552.10;1787613;80;21568;-61
2021/11/04 08:38:52;;;;;;;27.13;21.80;;;;;;;10.32;78.64;97553.92;1787911;80;20943;-59
2021/11/04 08:41:19;;;;;;;27.75;20.55;;;;;;;10.32;78.73;97563.87;1752239;80;21030;-57
2021/11/04 08:43:45;;;;;;;29.87;22.05;;;;;;;10.34;78.79;97565.12;1767944;80;20971;-58
2021/11/04 08:46:12;;;;;;;27.52;20.85;;;;;;;10.37;78.81;97557.84;1753405;80;21161;-58
2021/11/04 08:48:39;;;;;;;26.85;20.97;;;;;;;10.42;78.79;97566.31;1746679;82;21029;-59
2021/11/04 08:51:07;;;;;;;31.15;21.05;;;;;;;10.44;78.84;97571.63;1755242;80;21188;-59
2021/11/04 08:53:34;;;;;;;30.72;22.02;;;;;;;10.49;78.81;97583.57;1726094;82;20912;-61
2021/11/04 08:56:01;;;;;;;33.53;22.42;;;;;;;10.52;78.83;97580.30;1763582;80;21054;-60
2021/11/04 08:58:27;;;;;;;35.20;23.87;;;;;;;10.56;78.74;97579.95;1715840;82;21554;-59
2021/11/04 09:00:55;;;;;;;29.20;23.02;;;;;;;10.59;78.72;97574.00;1710219;83;20959;-62
2021/11/04 09:03:22;;;;;;;30.60;22.62;;;;;;;10.56;78.58;97578.61;1775018;80;21085;-57
2021/11/04 09:05:49;;;;;;;30.77;23.02;;;;;;;10.53;78.75;97584.55;1763813;80;21063;-59
2021/11/04 09:08:16;;;;;;;29.40;22.37;;;;;;;10.50;78.91;97575.80;1762151;81;21022;-55
2021/11/04 09:10:44;;;;;;;27.22;21.42;;;;;;;10.47;79.00;97572.38;1762062;81;21010;-57
2021/11/04 09:13:11;;;;;;;27.55;20.77;;;;;;;10.44;79.15;97570.28;1758465;81;20881;-61
2021/11/04 09:15:39;;;;;;;32.35;21.42;;;;;;;10.41;79.29;97560.16;1753873;81;21802;-60
2021/11/04 09:18:07;;;;;;;31.33;22.07;;;;;;;10.40;79.38;97565.29;1746540;81;20955;-59
2021/11/04 09:20:34;;;;;;;1999.90;999.90;;;;;;;10.39;79.57;97573.06;1760055;81;21001;-58
2021/11/04 09:23:02;;;;;;;566.12;177.60;;;;;;;10.41;79.65;97572.78;1742036;81;20897;-58
2021/11/04 09:25:29;;;;;;;80.40;46.10;;;;;;;10.42;79.69;97572.47;1738199;82;20945;-60
2021/11/04 09:27:56;;;;;;;34.85;24.02;;;;;;;10.47;79.75;97584.95;1735431;81;21102;-59
2021/11/04 09:30:25;;;;;;;28.87;22.32;;;;;;;10.51;79.73;97577.37;1745085;81;21573;-62
2021/11/04 09:32:52;;;;;;;26.48;20.02;;;;;;;10.59;79.56;97580.70;1743458;81;20913;-58
2021/11/04 09:35:19;;;;;;;31.60;21.62;;;;;;;10.68;79.40;97578.09;1767343;80;20936;-57
2021/11/04 09:37:45;;;;;;;29.25;22.60;;;;;;;10.77;79.20;97568.25;1766925;81;21070;-58
2021/11/04 09:40:13;;;;;;;28.85;22.37;;;;;;;10.89;79.06;97569.86;1765628;80;21518;-58
2021/11/04 09:42:39;;;;;;;28.55;20.97;;;;;;;11.03;78.64;97568.47;1739821;81;21023;-61
2021/11/04 09:45:07;;;;;;;30.88;22.15;;;;;;;11.15;78.20;97574.09;1731935;82;20972;-61
2021/11/04 09:47:35;;;;;;;28.15;21.68;;;;;;;11.26;77.83;97566.84;1732016;82;21087;-60
2021/11/04 09:50:09;;;;;;;33.20;25.55;;;;;;;11.38;77.45;97573.00;1731688;82;20996;-60
2021/11/04 09:52:37;;;;;;;32.55;23.25;;;;;;;11.49;76.98;97567.08;1756666;81;21936;-57
2021/11/04 09:55:19;;;;;;;50.98;32.83;;;;;;;11.64;76.80;97557.88;1757422;81;21483;-61
2021/11/04 09:57:51;;;;;;;53.60;34.05;;;;;;;11.85;76.19;97544.20;1700149;83;20932;-59
2021/11/04 10:00:18;;;;;;;41.18;26.95;;;;;;;12.04;75.25;97534.57;1706073;83;20988;-58
2021/11/04 10:02:46;;;;;;;32.28;23.10;;;;;;;12.13;74.73;97532.16;1683658;85;21559;-58
2021/11/04 10:05:15;;;;;;;27.37;21.40;;;;;;;12.23;74.13;97537.80;1713098;83;21203;-60
2021/11/04 10:07:48;;;;;;;26.27;19.92;;;;;;;12.39;73.87;97534.16;1721622;83;20928;-60
2021/11/04 10:10:20;;;;;;;27.42;21.82;;;;;;;12.57;72.95;97533.08;1722658;83;21003;-61
2021/11/04 10:13:06;;;;;;;32.98;22.42;;;;;;;12.76;72.79;97536.27;1724755;83;20960;-61
2021/11/04 10:15:36;;;;;;;215.52;104.53;;;;;;;12.98;71.58;97532.07;1717785;83;21054;-59
2021/11/04 10:18:14;;;;;;;28.95;22.15;;;;;;;13.14;70.95;97521.13;1727441;82;21086;-61
2021/11/04 10:20:42;;;;;;;28.38;22.17;;;;;;;13.28;70.27;97523.09;1746028;82;21396;-59
2021/11/04 10:23:13;;;;;;;27.37;20.00;;;;;;;13.37;69.54;97531.14;1724993;83;20932;-60
2021/11/04 10:25:42;;;;;;;23.87;18.37;;;;;;;13.38;68.91;97510.64;1725337;83;20900;-60
2021/11/04 10:28:27;;;;;;;23.65;18.85;;;;;;;13.34;68.65;97523.16;1725137;82;21012;-59
2021/11/04 10:30:55;;;;;;;26.87;20.10;;;;;;;13.34;68.89;97523.16;1725155;82;21132;-61
2021/11/04 10:33:26;;;;;;;24.27;19.55;;;;;;;13.37;68.92;97518.48;1725010;83;20868;-60
2021/11/04 10:36:06;;;;;;;28.12;18.67;;;;;;;13.46;68.65;97508.50;1722780;83;21436;-60
2021/11/04 10:38:48;;;;;;;169.68;135.78;;;;;;;13.56;68.33;97522.97;1725037;83;21003;-58
2021/11/04 10:41:24;;;;;;;27.50;19.23;;;;;;;13.64;67.85;97518.10;1725755;82;20943;-57
2021/11/04 10:44:04;;;;;;;21.12;17.02;;;;;;;13.57;67.46;97517.80;1725026;83;21135;-58
2021/11/04 10:46:41;;;;;;;27.90;17.87;;;;;;;13.38;67.91;97524.09;1721407;83;21412;-61
2021/11/04 10:49:08;;;;;;;28.90;18.77;;;;;;;13.22;68.62;97525.70;1701641;83;20935;-59
2021/11/04 10:51:37;;;;;;;27.48;18.80;;;;;;;13.13;69.16;97510.13;1725049;83;20971;-57
2021/11/04 10:54:07;;;;;;;29.85;19.75;;;;;;;13.09;69.25;97517.25;1725092;83;21030;-60
2021/11/04 10:56:38;;;;;;;23.50;18.35;;;;;;;13.01;69.70;97496.50;1725299;83;21478;-57
2021/11/04 10:59:16;;;;;;;27.70;19.12;;;;;;;12.99;69.82;97493.34;1724899;83;20943;-59
2021/11/04 11:01:48;;;;;;;26.05;17.25;;;;;;;12.97;70.02;97503.63;1725120;83;20964;-60
2021/11/04 11:04:21;;;;;;;30.43;18.07;;;;;;;12.95;70.35;97506.61;1724921;83;20944;-57
2021/11/04 11:06:53;;;;;;;23.42;18.07;;;;;;;13.00;70.32;97508.37;1747919;82;20928;-59
2021/11/04 11:09:29;;;;;;;25.57;18.37;;;;;;;13.08;70.38;97510.83;1782908;80;21101;-61
2021/11/04 11:11:59;;;;;;;24.80;17.75;;;;;;;13.15;70.28;97507.91;1786405;80;21056;-59
2021/11/04 11:14:34;;;;;;;22.80;17.60;;;;;;;13.20;70.15;97480.86;1786219;80;21370;-58
2021/11/04 11:17:02;;;;;;;21.65;16.30;;;;;;;13.24;70.05;97476.96;1786224;80;21026;-58
2021/11/04 11:19:31;;;;;;;20.62;17.02;;;;;;;13.23;69.77;97489.64;1786257;80;21105;-59
2021/11/04 11:21:59;;;;;;;21.68;16.37;;;;;;;13.22;69.89;97502.84;1786386;80;21124;-58
2021/11/04 11:24:37;;;;;;;27.35;16.70;;;;;;;13.21;70.00;97493.20;1787877;80;20888;-58
2021/11/04 11:27:09;;;;;;;24.20;17.37;;;;;;;13.24;69.95;97476.41;1786564;80;21045;-56
2021/11/04 11:29:46;;;;;;;24.30;17.60;;;;;;;13.25;69.96;97479.35;1783593;80;21047;-61